Time;durP1;ratioP1;P1;durP2;ratioP2;P2;SDS_P1;SDS_P2;PMS_P1;PMS_P2;Temp;Humidity;BMP_temperature;BMP_pressure;BME280_temperature;BME280_humidity;BME280_pressure;Samples;Min_cycle;Max_cycle;Signal;HPM_P1;HPM_P2
2022/06/26 00:01:08;;;;;;;5.20;2.20;;;;;20.50;97242.60;;;;110583;1253;42070;-66
2022/06/26 00:03:38;;;;;;;4.90;1.90;;;;;20.50;97244.80;;;;110569;1254;41171;-63
2022/06/26 00:06:09;;;;;;;5.40;2.20;;;;;20.56;97249.00;;;;110513;1255;41638;-65
2022/06/26 00:08:39;;;;;;;4.50;1.90;;;;;20.58;97256.60;;;;110517;1253;41382;-65
2022/06/26 00:11:09;;;;;;;5.80;2.10;;;;;20.58;97257.60;;;;110545;1253;41727;-64
2022/06/26 00:17:16;;;;;;;8.10;2.80;;;;;20.50;97267.80;;;;110606;1253;41181;-66
2022/06/26 00:19:46;;;;;;;6.30;2.30;;;;;20.50;97269.40;;;;110510;1253;42360;-66
2022/06/26 00:22:17;;;;;;;;;;;;;20.40;97273.00;;;;110499;1256;41161;-65
2022/06/26 00:24:47;;;;;;;7.00;2.60;;;;;20.22;97280.40;;;;110423;1254;41139;-67
2022/06/26 00:27:19;;;;;;;8.30;3.00;;;;;20.10;97285.20;;;;110479;1253;41159;-65
2022/06/26 00:29:50;;;;;;;7.20;2.70;;;;;19.98;97294.40;;;;110539;1253;41842;-66
2022/06/26 00:32:21;;;;;;;10.90;2.70;;;;;19.70;97300.00;;;;110416;1253;41689;-66
2022/06/26 00:34:51;;;;;;;7.20;2.60;;;;;19.50;97303.00;;;;110508;1254;41301;-66
2022/06/26 00:37:21;;;;;;;5.30;2.00;;;;;19.40;97304.20;;;;110501;1253;41159;-66
2022/06/26 00:39:51;;;;;;;4.40;2.00;;;;;19.40;97305.40;;;;110495;1253;41720;-66
2022/06/26 00:42:22;;;;;;;7.70;2.60;;;;;19.44;97303.20;;;;110509;1253;42351;-66
2022/06/26 00:44:55;;;;;;;5.70;2.30;;;;;19.50;97305.20;;;;110489;1253;40743;-66
2022/06/26 00:47:26;;;;;;;6.60;2.40;;;;;19.50;97304.80;;;;110531;1253;41181;-65
2022/06/26 00:49:56;;;;;;;6.10;2.50;;;;;19.60;97308.00;;;;110547;1253;41279;-66
2022/06/26 00:52:27;;;;;;;;;;;;;19.60;97310.80;;;;110309;1253;41266;-65
2022/06/26 00:54:58;;;;;;;6.10;2.30;;;;;19.50;97314.60;;;;110645;1253;41273;-66
2022/06/26 00:57:28;;;;;;;5.90;2.30;;;;;19.56;97315.60;;;;110598;1252;42105;-65
2022/06/26 00:59:59;;;;;;;7.50;2.80;;;;;19.60;97313.40;;;;110532;1253;41133;-65
2022/06/26 01:02:29;;;;;;;7.70;2.90;;;;;19.60;97305.80;;;;110409;1252;41695;-66
2022/06/26 01:05:00;;;;;;;8.30;2.80;;;;;19.70;97303.80;;;;110479;1253;41607;-66
2022/06/26 01:07:29;;;;;;;;;;;;;19.70;97300.80;;;;110561;1253;41147;-66
2022/06/26 01:10:02;;;;;;;5.00;2.10;;;;;19.60;97304.40;;;;110444;1254;41714;-65
2022/06/26 01:12:32;;;;;;;6.30;2.30;;;;;19.68;97306.60;;;;110501;1254;41276;-66
2022/06/26 01:15:07;;;;;;;5.10;2.10;;;;;19.68;97310.60;;;;110642;1252;41195;-66
2022/06/26 01:17:37;;;;;;;6.20;2.70;;;;;19.70;97310.40;;;;110509;1253;41192;-65
2022/06/26 01:20:10;;;;;;;7.90;3.00;;;;;19.70;97308.40;;;;110443;1255;41805;-65
2022/06/26 01:22:40;;;;;;;7.60;2.70;;;;;19.70;97310.20;;;;110452;1253;41146;-66
2022/06/26 01:25:11;;;;;;;7.40;2.90;;;;;19.70;97312.40;;;;110506;1253;41187;-67
2022/06/26 01:27:43;;;;;;;6.30;2.80;;;;;19.70;97314.80;;;;110566;1253;41577;-66
2022/06/26 01:30:16;;;;;;;6.20;2.50;;;;;19.70;97323.20;;;;110490;1252;41257;-65
2022/06/26 01:32:48;;;;;;;6.40;2.60;;;;;19.62;97323.80;;;;110508;1253;42163;-65
2022/06/26 01:35:20;;;;;;;6.50;2.70;;;;;19.64;97328.20;;;;110475;1253;41952;-65
2022/06/26 01:38:20;;;;;;;6.50;2.70;;;;;19.70;97331.40;;;;110439;1255;41966;-66
2022/06/26 01:40:52;;;;;;;7.10;3.00;;;;;19.70;97330.60;;;;110467;1252;41244;-65
2022/06/26 01:43:26;;;;;;;6.80;2.70;;;;;19.70;97334.20;;;;110337;1256;41553;-66
2022/06/26 01:45:57;;;;;;;6.20;2.70;;;;;19.68;97334.20;;;;110536;1253;41140;-65
2022/06/26 01:48:33;;;;;;;6.20;2.80;;;;;19.70;97328.00;;;;110521;1254;41275;-65
2022/06/26 01:51:03;;;;;;;6.80;2.80;;;;;19.62;97334.40;;;;110395;1256;41157;-66
2022/06/26 01:53:36;;;;;;;8.60;2.70;;;;;19.62;97333.00;;;;110305;1253;41153;-65
2022/06/26 01:56:06;;;;;;;6.00;2.50;;;;;19.64;97336.00;;;;110553;1253;41700;-66
2022/06/26 01:58:43;;;;;;;5.60;2.40;;;;;19.60;97337.60;;;;110496;1254;42093;-67
2022/06/26 02:01:20;;;;;;;5.50;2.40;;;;;19.60;97338.20;;;;110511;1253;41151;-65
2022/06/26 02:03:52;;;;;;;6.30;2.60;;;;;19.60;97338.80;;;;110554;1254;42338;-65
2022/06/26 02:06:23;;;;;;;7.80;2.80;;;;;19.60;97341.20;;;;110395;1253;41251;-66
2022/06/26 02:08:54;;;;;;;6.70;2.90;;;;;19.40;97345.40;;;;110535;1253;41146;-66
2022/06/26 02:14:15;;;;;;;7.30;3.00;;;;;19.10;97349.40;;;;110459;1253;41164;-67
2022/06/26 02:16:51;;;;;;;6.50;2.80;;;;;19.00;97341.00;;;;110447;1253;41622;-66
2022/06/26 02:19:22;;;;;;;14.90;3.10;;;;;18.90;97342.60;;;;110505;1254;41317;-66
2022/06/26 02:21:52;;;;;;;8.10;3.20;;;;;18.80;97342.40;;;;110610;1253;41718;-65
2022/06/26 02:24:23;;;;;;;7.30;3.10;;;;;18.84;97339.60;;;;110322;1253;41143;-66
2022/06/26 02:26:55;;;;;;;7.10;2.80;;;;;18.84;97341.60;;;;110578;1253;41900;-66
2022/06/26 02:29:26;;;;;;;6.10;2.80;;;;;18.90;97340.00;;;;110531;1253;41700;-65
2022/06/26 02:31:56;;;;;;;7.40;2.80;;;;;18.90;97339.80;;;;110578;1253;41389;-67
2022/06/26 02:34:26;;;;;;;6.50;2.70;;;;;18.90;97341.20;;;;110535;1252;41912;-67
2022/06/26 02:36:57;;;;;;;8.30;3.50;;;;;18.90;97348.40;;;;110634;1253;41214;-66
2022/06/26 02:39:30;;;;;;;7.30;2.80;;;;;18.80;97351.20;;;;110526;1253;42406;-66
2022/06/26 02:42:02;;;;;;;8.00;3.00;;;;;18.70;97347.80;;;;110365;1256;42435;-66
2022/06/26 02:44:34;;;;;;;8.90;3.20;;;;;18.62;97350.20;;;;110724;1253;41588;-67
2022/06/26 02:47:06;;;;;;;9.70;3.30;;;;;18.60;97352.40;;;;110661;1253;41148;-65
2022/06/26 02:49:35;;;;;;;7.90;2.80;;;;;18.50;97354.60;;;;110539;1253;41161;-66
2022/06/26 02:52:05;;;;;;;8.00;2.70;;;;;18.50;97355.00;;;;110674;1251;41400;-67
2022/06/26 02:54:38;;;;;;;6.60;2.70;;;;;18.50;97354.80;;;;110566;1251;41407;-65
2022/06/26 02:57:08;;;;;;;6.60;2.70;;;;;18.54;97352.00;;;;110428;1255;41969;-67
2022/06/26 02:59:38;;;;;;;6.00;2.60;;;;;18.60;97354.80;;;;110538;1253;41266;-65
2022/06/26 03:02:10;;;;;;;8.40;2.70;;;;;18.60;97355.80;;;;110429;1254;41266;-66
2022/06/26 03:04:47;;;;;;;6.70;2.60;;;;;18.60;97357.00;;;;110598;1252;41148;-66
2022/06/26 03:07:22;;;;;;;7.20;2.80;;;;;18.68;97360.80;;;;110493;1253;42660;-65
2022/06/26 03:09:52;;;;;;;9.60;2.70;;;;;18.70;97364.40;;;;110442;1256;41957;-66
2022/06/26 03:12:22;;;;;;;5.90;2.50;;;;;18.70;97364.40;;;;110537;1253;41281;-65
2022/06/26 03:14:52;;;;;;;6.40;2.70;;;;;18.74;97362.00;;;;110707;1252;41143;-65
2022/06/26 03:17:22;;;;;;;7.20;2.60;;;;;18.80;97364.00;;;;110405;1253;41161;-65
2022/06/26 03:19:53;;;;;;;;;;;;;18.80;97365.00;;;;110488;1252;41619;-65
2022/06/26 03:22:23;;;;;;;5.90;2.60;;;;;18.80;97370.00;;;;110601;1252;41263;-66
2022/06/26 03:24:54;;;;;;;7.30;2.80;;;;;18.82;97370.60;;;;110476;1253;41141;-66
2022/06/26 03:27:28;;;;;;;6.20;2.90;;;;;18.90;97368.40;;;;110634;1252;41164;-68
2022/06/26 03:29:59;;;;;;;7.60;2.80;;;;;18.90;97369.40;;;;110527;1252;41589;-67
2022/06/26 03:32:29;;;;;;;;;;;;;19.00;97374.40;;;;110413;1256;41249;-66
2022/06/26 03:35:06;;;;;;;9.00;3.20;;;;;19.00;97374.80;;;;110527;1253;41503;-66
2022/06/26 03:37:35;;;;;;;;;;;;;19.00;97383.40;;;;110553;1253;42511;-66
2022/06/26 03:40:09;;;;;;;8.50;2.90;;;;;19.02;97382.80;;;;110539;1253;41762;-65
2022/06/26 03:42:39;;;;;;;9.60;3.30;;;;;19.10;97386.60;;;;110430;1253;41171;-66
2022/06/26 03:45:10;;;;;;;9.50;2.90;;;;;19.10;97382.40;;;;110528;1253;42581;-66
2022/06/26 03:47:40;;;;;;;7.90;3.10;;;;;19.20;97385.20;;;;110527;1253;41609;-65
2022/06/26 03:50:12;;;;;;;6.80;3.00;;;;;19.20;97386.40;;;;110521;1253;41173;-65
2022/06/26 03:52:50;;;;;;;8.30;2.90;;;;;19.30;97389.20;;;;110589;1253;41657;-65
2022/06/26 03:55:20;;;;;;;8.10;3.20;;;;;19.30;97389.20;;;;110458;1254;41393;-66
2022/06/26 03:57:51;;;;;;;6.90;3.10;;;;;19.30;97386.00;;;;110545;1253;41154;-66
2022/06/26 04:00:21;;;;;;;7.40;3.20;;;;;19.40;97393.60;;;;110502;1255;41406;-66
2022/06/26 04:02:51;;;;;;;11.40;3.20;;;;;19.40;97396.40;;;;110593;1253;41761;-66
2022/06/26 04:05:26;;;;;;;8.80;3.80;;;;;19.48;97393.20;;;;110552;1253;41306;-66
2022/06/26 04:07:59;;;;;;;10.80;3.70;;;;;19.50;97399.80;;;;110507;1254;42525;-66
2022/06/26 04:10:42;;;;;;;7.90;3.60;;;;;19.60;97397.60;;;;110528;1254;41608;-66
2022/06/26 04:13:26;;;;;;;7.50;2.90;;;;;19.70;97401.00;;;;110294;1256;41266;-66
2022/06/26 04:15:58;;;;;;;6.50;3.00;;;;;19.80;97390.80;;;;110490;1254;41505;-65
2022/06/26 04:18:27;;;;;;;;;;;;;19.90;97390.40;;;;110340;1255;41192;-66
2022/06/26 04:20:57;;;;;;;6.10;2.40;;;;;19.98;97393.00;;;;110474;1254;41158;-66
2022/06/26 04:23:27;;;;;;;6.50;2.80;;;;;20.10;97394.40;;;;110397;1253;42288;-66
2022/06/26 04:26:05;;;;;;;6.50;2.80;;;;;20.40;97390.40;;;;110486;1253;41316;-65
2022/06/26 04:28:34;;;;;;;8.90;3.40;;;;;20.86;97388.80;;;;110447;1256;41162;-66
2022/06/26 04:31:08;;;;;;;7.10;2.90;;;;;21.18;97390.20;;;;110440;1253;41635;-65
2022/06/26 04:33:39;;;;;;;7.90;3.20;;;;;21.80;97383.40;;;;110359;1256;41159;-66
2022/06/26 04:36:09;;;;;;;7.30;3.00;;;;;22.40;97389.80;;;;110406;1256;41396;-65
2022/06/26 04:38:38;;;;;;;7.30;3.00;;;;;22.70;97376.80;;;;110477;1253;41167;-66
2022/06/26 04:43:58;;;;;;;8.10;3.20;;;;;24.64;97368.60;;;;110400;1256;41193;-67
2022/06/26 04:46:28;;;;;;;8.70;2.60;;;;;25.56;97365.40;;;;110537;1254;41333;-66
2022/06/26 04:48:58;;;;;;;8.60;2.90;;;;;26.48;97366.20;;;;110540;1254;41648;-66
2022/06/26 04:51:28;;;;;;;7.00;2.70;;;;;26.32;97370.20;;;;110236;1256;41161;-66
2022/06/26 04:53:59;;;;;;;5.80;2.30;;;;;26.50;97377.80;;;;110438;1254;41655;-66
2022/06/26 04:56:35;;;;;;;5.00;2.30;;;;;26.62;97386.40;;;;110474;1254;41165;-67
2022/06/26 04:59:05;;;;;;;6.10;2.50;;;;;26.62;97390.00;;;;110563;1253;41264;-67
2022/06/26 05:01:36;;;;;;;5.30;2.20;;;;;26.40;97388.20;;;;110423;1255;41153;-67
2022/06/26 05:04:25;;;;;;;7.00;2.40;;;;;26.40;97390.60;;;;110387;1256;41622;-66
2022/06/26 05:07:17;;;;;;;5.40;2.30;;;;;26.40;97385.40;;;;110223;1255;41266;-66
2022/06/26 05:09:47;;;;;;;5.40;2.40;;;;;26.50;97386.20;;;;110587;1252;42439;-65
2022/06/26 05:12:16;;;;;;;5.60;2.20;;;;;26.76;97387.00;;;;110553;1253;41267;-66
2022/06/26 05:15:21;;;;;;;5.70;2.20;;;;;27.04;97387.60;;;;110086;1259;41531;-66
2022/06/26 05:17:51;;;;;;;;;;;;;27.30;97391.80;;;;110486;1253;41498;-66
2022/06/26 05:20:20;;;;;;;8.30;2.40;;;;;27.40;97398.40;;;;110555;1253;41165;-66
2022/06/26 05:22:50;;;;;;;5.00;2.20;;;;;27.00;97396.40;;;;110608;1253;41150;-65
2022/06/26 05:25:20;;;;;;;7.10;2.40;;;;;27.18;97398.60;;;;110526;1253;41172;-66
2022/06/26 05:27:50;;;;;;;5.40;2.20;;;;;26.68;97404.00;;;;110382;1253;41635;-65
2022/06/26 05:30:19;;;;;;;6.20;2.50;;;;;26.70;97412.40;;;;110492;1254;41155;-66
2022/06/26 05:32:49;;;;;;;7.80;2.50;;;;;26.40;97417.80;;;;110449;1253;41268;-66
2022/06/26 05:35:22;;;;;;;9.20;2.50;;;;;26.20;97422.00;;;;110482;1253;42041;-66
2022/06/26 05:37:51;;;;;;;9.80;2.50;;;;;26.10;97419.60;;;;110466;1254;41477;-67
2022/06/26 05:40:21;;;;;;;7.80;2.40;;;;;26.00;97422.80;;;;110475;1254;41167;-66
2022/06/26 05:42:53;;;;;;;7.50;2.30;;;;;26.10;97424.00;;;;110544;1253;41140;-66
2022/06/26 05:45:25;;;;;;;6.70;2.20;;;;;26.10;97424.60;;;;110491;1252;41712;-65
2022/06/26 05:48:28;;;;;;;4.90;2.00;;;;;26.20;97429.80;;;;110354;1254;41856;-66
2022/06/26 05:51:12;;;;;;;7.70;2.20;;;;;26.30;97430.80;;;;110367;1253;41218;-66
2022/06/26 05:53:55;;;;;;;4.90;2.20;;;;;26.40;97430.40;;;;110533;1253;41609;-66
2022/06/26 05:56:57;;;;;;;4.70;2.00;;;;;26.50;97431.20;;;;110276;1254;42205;-66
2022/06/26 05:59:37;;;;;;;4.60;2.10;;;;;27.04;97417.00;;;;110533;1253;41733;-65
2022/06/26 06:02:24;;;;;;;4.50;2.10;;;;;28.00;97406.20;;;;110551;1253;41718;-66
2022/06/26 06:04:54;;;;;;;4.50;2.10;;;;;28.52;97406.40;;;;110423;1254;41820;-66
2022/06/26 06:07:23;;;;;;;6.00;2.40;;;;;29.00;97403.20;;;;110502;1253;41592;-66
2022/06/26 06:09:52;;;;;;;5.70;2.30;;;;;29.16;97408.40;;;;110485;1254;41615;-65
2022/06/26 06:12:21;;;;;;;5.40;2.10;;;;;29.60;97410.80;;;;110468;1255;41162;-65
2022/06/26 06:14:51;;;;;;;7.30;2.50;;;;;30.20;97413.80;;;;110330;1256;41401;-65
2022/06/26 06:20:18;;;;;;;12.30;2.50;;;;;28.84;97428.00;;;;110370;1256;42086;-67
2022/06/26 06:22:53;;;;;;;6.60;2.20;;;;;27.54;97445.40;;;;110512;1254;41241;-65
2022/06/26 06:25:22;;;;;;;6.70;2.30;;;;;27.34;97448.20;;;;110528;1254;41374;-66
2022/06/26 06:27:52;;;;;;;6.20;2.50;;;;;26.88;97448.60;;;;110406;1253;41160;-66
2022/06/26 06:30:27;;;;;;;4.50;2.10;;;;;26.50;97451.40;;;;110411;1254;42012;-66
2022/06/26 06:32:57;;;;;;;;;;;;;26.48;97451.80;;;;110505;1255;41155;-66
2022/06/26 06:35:38;;;;;;;6.00;2.20;;;;;26.66;97449.80;;;;110520;1252;41657;-66
2022/06/26 06:38:08;;;;;;;4.90;2.10;;;;;26.90;97442.80;;;;110403;1253;41519;-66
2022/06/26 06:40:38;;;;;;;5.90;2.20;;;;;27.08;97444.80;;;;110529;1253;41310;-66
2022/06/26 06:43:10;;;;;;;4.80;2.10;;;;;27.40;97440.60;;;;110505;1254;41138;-66
2022/06/26 06:46:05;;;;;;;3.00;1.70;;;;;27.82;97438.60;;;;110306;1256;41167;-66
2022/06/26 06:48:35;;;;;;;3.40;1.70;;;;;28.22;97441.80;;;;110252;1256;41198;-66
2022/06/26 06:51:40;;;;;;;4.20;2.00;;;;;28.56;97442.40;;;;110257;1256;41451;-66
2022/06/26 06:54:09;;;;;;;6.50;1.90;;;;;28.68;97441.00;;;;110449;1255;41267;-66
2022/06/26 06:56:39;;;;;;;4.90;2.00;;;;;28.60;97440.20;;;;110280;1255;41214;-67
2022/06/26 06:59:08;;;;;;;4.80;2.00;;;;;28.50;97443.00;;;;110218;1254;41261;-66
2022/06/26 07:01:43;;;;;;;4.80;1.90;;;;;28.26;97437.60;;;;110386;1253;41199;-65
2022/06/26 07:04:13;;;;;;;4.90;2.00;;;;;28.00;97442.20;;;;110302;1256;41150;-67
2022/06/26 07:06:43;;;;;;;4.80;1.90;;;;;28.06;97447.00;;;;110484;1253;42046;-66
2022/06/26 07:09:12;;;;;;;5.30;2.30;;;;;27.78;97444.60;;;;110484;1254;41199;-66
2022/06/26 07:11:42;;;;;;;6.80;2.40;;;;;27.40;97447.40;;;;110373;1256;41209;-67
2022/06/26 07:14:13;;;;;;;5.80;2.20;;;;;27.10;97447.80;;;;110438;1256;41981;-66
2022/06/26 07:16:42;;;;;;;5.50;2.20;;;;;27.08;97449.00;;;;110430;1256;41149;-66
2022/06/26 07:19:11;;;;;;;5.70;2.30;;;;;27.30;97449.20;;;;110151;1256;41147;-66
2022/06/26 07:21:43;;;;;;;4.50;1.90;;;;;27.44;97450.00;;;;110408;1256;41658;-66
2022/06/26 07:24:13;;;;;;;6.50;2.30;;;;;27.60;97452.00;;;;110476;1255;41583;-66
2022/06/26 07:27:06;;;;;;;5.20;2.00;;;;;27.20;97454.00;;;;110243;1256;41785;-66
2022/06/26 07:29:39;;;;;;;5.50;2.40;;;;;27.28;97450.60;;;;109799;1256;453861;-66
2022/06/26 07:32:14;;;;;;;8.50;3.00;;;;;27.42;97456.00;;;;110223;1254;42053;-66
2022/06/26 07:34:43;;;;;;;6.80;2.80;;;;;27.50;97459.20;;;;110298;1256;41268;-66
2022/06/26 07:37:13;;;;;;;8.00;2.90;;;;;27.48;97462.40;;;;110373;1254;41619;-67
2022/06/26 07:39:43;;;;;;;4.80;2.30;;;;;27.50;97467.60;;;;110265;1256;41558;-66
2022/06/26 07:42:12;;;;;;;5.40;2.20;;;;;27.52;97469.80;;;;110474;1256;41143;-67
2022/06/26 07:44:42;;;;;;;6.00;2.20;;;;;27.60;97465.00;;;;110227;1256;41315;-67
2022/06/26 07:47:13;;;;;;;5.90;2.40;;;;;27.70;97465.60;;;;110443;1254;41270;-67
2022/06/26 07:49:56;;;;;;;6.90;2.90;;;;;27.84;97469.00;;;;110516;1253;41399;-66
2022/06/26 07:52:25;;;;;;;6.20;2.40;;;;;27.90;97470.00;;;;110521;1253;41884;-66
2022/06/26 07:54:54;;;;;;;6.80;2.40;;;;;27.90;97470.20;;;;110637;1251;41181;-67
2022/06/26 07:57:24;;;;;;;7.50;2.40;;;;;27.90;97470.40;;;;110618;1253;41276;-67
2022/06/26 07:59:54;;;;;;;7.60;2.50;;;;;27.76;97470.40;;;;110472;1253;42390;-67
2022/06/26 08:02:23;;;;;;;5.40;2.20;;;;;27.70;97474.80;;;;110542;1252;41611;-67
2022/06/26 08:04:53;;;;;;;7.80;2.50;;;;;27.70;97473.80;;;;110622;1253;41140;-67
2022/06/26 08:07:22;;;;;;;6.30;2.70;;;;;27.70;97471.40;;;;110660;1252;41732;-67
2022/06/26 08:09:51;;;;;;;7.60;3.00;;;;;27.70;97466.00;;;;110488;1254;41938;-67
2022/06/26 08:12:20;;;;;;;6.60;2.20;;;;;27.70;97465.00;;;;110584;1253;41167;-66
2022/06/26 08:14:50;;;;;;;6.90;2.60;;;;;27.80;97464.20;;;;110468;1253;41638;-66
2022/06/26 08:17:19;;;;;;;8.10;2.70;;;;;27.86;97468.60;;;;110418;1251;41611;-66
2022/06/26 08:19:48;;;;;;;6.10;2.30;;;;;27.70;97471.40;;;;110589;1253;41133;-67
2022/06/26 08:22:18;;;;;;;5.60;2.10;;;;;27.50;97468.60;;;;110524;1253;41380;-67
2022/06/26 08:24:47;;;;;;;5.80;2.40;;;;;27.54;97467.60;;;;110522;1253;41159;-66
2022/06/26 08:27:16;;;;;;;4.20;2.00;;;;;27.44;97470.20;;;;110504;1253;41312;-66
2022/06/26 08:29:45;;;;;;;6.00;2.40;;;;;27.64;97465.40;;;;110509;1254;41194;-66
2022/06/26 08:32:15;;;;;;;6.30;2.40;;;;;27.72;97459.60;;;;110458;1256;41201;-66
2022/06/26 08:34:44;;;;;;;6.00;2.30;;;;;27.80;97456.00;;;;110455;1253;41162;-66
2022/06/26 08:37:13;;;;;;;7.10;2.40;;;;;28.00;97456.20;;;;110444;1254;41945;-66
2022/06/26 08:39:43;;;;;;;5.20;2.20;;;;;28.16;97455.60;;;;110621;1253;41619;-68
2022/06/26 08:42:12;;;;;;;4.90;2.00;;;;;27.90;97455.20;;;;110584;1253;41617;-67
2022/06/26 08:44:43;;;;;;;5.70;2.20;;;;;28.20;97454.80;;;;110590;1253;41357;-69
2022/06/26 08:47:14;;;;;;;9.40;2.40;;;;;28.50;97450.80;;;;110413;1254;41160;-67
2022/06/26 08:49:44;;;;;;;5.60;2.10;;;;;28.80;97452.40;;;;110432;1253;41643;-67
2022/06/26 08:52:18;;;;;;;5.10;2.10;;;;;29.16;97452.00;;;;110533;1254;41261;-68
2022/06/26 08:54:49;;;;;;;7.60;2.50;;;;;29.50;97455.60;;;;110599;1255;41160;-67
2022/06/26 08:57:21;;;;;;;5.80;2.00;;;;;29.60;97453.40;;;;110756;1253;41623;-68
2022/06/26 08:59:50;;;;;;;5.00;2.10;;;;;29.84;97453.00;;;;110608;1253;41505;-67
2022/06/26 09:02:19;;;;;;;11.10;2.40;;;;;29.62;97447.20;;;;110568;1254;41615;-68
2022/06/26 09:04:48;;;;;;;6.90;2.10;;;;;29.70;97449.40;;;;110576;1255;41140;-68
2022/06/26 09:07:18;;;;;;;6.30;2.60;;;;;30.06;97449.40;;;;110582;1256;41286;-68
2022/06/26 09:09:47;;;;;;;6.70;2.40;;;;;30.20;97448.40;;;;110659;1254;41266;-68
2022/06/26 09:12:16;;;;;;;5.90;2.30;;;;;30.20;97449.40;;;;110609;1255;41166;-67
2022/06/26 09:14:52;;;;;;;4.50;2.10;;;;;30.84;97444.40;;;;110552;1256;41942;-68
2022/06/26 09:17:23;;;;;;;6.80;2.30;;;;;31.72;97436.20;;;;110683;1254;41174;-69
2022/06/26 09:19:55;;;;;;;5.30;2.30;;;;;32.42;97430.40;;;;110609;1255;41251;-69
2022/06/26 09:22:24;;;;;;;5.70;2.40;;;;;32.66;97435.80;;;;110752;1253;40838;-67
2022/06/26 09:24:56;;;;;;;6.60;2.50;;;;;32.42;97434.40;;;;110717;1253;41635;-68
2022/06/26 09:27:26;;;;;;;6.10;2.30;;;;;32.20;97437.80;;;;110529;1254;41924;-67
2022/06/26 09:29:56;;;;;;;5.30;2.30;;;;;32.20;97443.40;;;;110515;1253;41146;-67
2022/06/26 09:32:27;;;;;;;7.80;2.50;;;;;32.20;97438.00;;;;110522;1253;41225;-67
2022/06/26 09:34:56;;;;;;;6.90;2.50;;;;;31.80;97436.80;;;;110498;1254;41158;-69
2022/06/26 09:37:34;;;;;;;7.20;2.90;;;;;31.32;97433.60;;;;110619;1253;41816;-69
2022/06/26 09:40:23;;;;;;;13.80;2.60;;;;;31.64;97428.80;;;;110424;1254;41202;-69
2022/06/26 09:42:52;;;;;;;5.80;2.40;;;;;31.52;97436.80;;;;110564;1253;41262;-69
2022/06/26 09:45:21;;;;;;;9.10;3.20;;;;;31.44;97442.00;;;;110496;1253;41270;-68
2022/06/26 09:47:51;;;;;;;8.10;3.30;;;;;31.90;97438.60;;;;110457;1256;41771;-67
2022/06/26 09:50:19;;;;;;;8.00;3.40;;;;;31.80;97439.20;;;;110480;1255;41176;-67
2022/06/26 09:52:49;;;;;;;10.40;3.60;;;;;31.80;97437.80;;;;110622;1255;41384;-68
2022/06/26 09:55:18;;;;;;;8.00;3.30;;;;;31.60;97433.80;;;;110596;1254;42464;-66
2022/06/26 09:57:47;;;;;;;7.60;2.90;;;;;31.60;97436.60;;;;110614;1256;41160;-69
2022/06/26 10:00:16;;;;;;;11.50;3.50;;;;;31.72;97435.20;;;;110579;1255;41960;-64
2022/06/26 10:06:25;;;;;;;7.80;3.00;;;;;32.34;97434.80;;;;110624;1254;41948;-69
2022/06/26 10:08:32;;;;;;;7.90;3.20;;;;;32.34;97430.00;;;;110564;1254;41147;-68
2022/06/26 10:11:03;;;;;;;8.60;3.30;;;;;32.28;97429.00;;;;110554;1256;40931;-66
2022/06/26 10:13:33;;;;;;;7.20;2.70;;;;;31.64;97435.20;;;;110501;1255;41569;-68
2022/06/26 10:16:37;;;;;;;6.50;2.70;;;;;31.80;97437.20;;;;110359;1256;41647;-66
2022/06/26 10:19:37;;;;;;;6.70;2.80;;;;;32.32;97433.80;;;;110527;1253;41159;-66
2022/06/26 10:22:06;;;;;;;7.50;2.70;;;;;31.90;97438.20;;;;110621;1255;41180;-68
2022/06/26 10:24:35;;;;;;;4.80;2.20;;;;;31.50;97440.80;;;;110518;1256;41160;-69
2022/06/26 10:27:04;;;;;;;8.70;2.60;;;;;31.12;97440.60;;;;110587;1255;41193;-68
2022/06/26 10:29:34;;;;;;;6.00;2.40;;;;;30.48;97448.20;;;;110457;1255;41185;-68
2022/06/26 10:32:05;;;;;;;7.80;2.90;;;;;30.40;97453.40;;;;110629;1254;41169;-68
2022/06/26 10:34:34;;;;;;;6.80;2.60;;;;;30.10;97455.00;;;;110428;1257;41160;-68
2022/06/26 10:37:10;;;;;;;7.30;2.90;;;;;30.10;97454.60;;;;110471;1256;42356;-68
2022/06/26 10:39:42;;;;;;;5.90;2.30;;;;;30.20;97453.40;;;;110614;1253;41273;-69
2022/06/26 10:45:43;;;;;;;7.80;2.80;;;;;30.62;97448.60;;;;110412;1255;42226;-67
2022/06/26 10:48:21;;;;;;;9.30;2.80;;;;;30.76;97445.80;;;;109968;1261;41179;-67
2022/06/26 10:50:58;;;;;;;6.40;2.50;;;;;30.88;97438.40;;;;109855;1262;41392;-68
2022/06/26 10:53:35;;;;;;;6.10;2.30;;;;;31.34;97436.20;;;;110038;1261;41615;-68
2022/06/26 10:56:06;;;;;;;10.50;2.80;;;;;31.52;97431.40;;;;109929;1261;41151;-69
2022/06/26 10:58:37;;;;;;;4.90;2.20;;;;;32.42;97420.80;;;;109964;1260;42091;-68
2022/06/26 11:01:08;;;;;;;7.00;2.40;;;;;32.06;97420.20;;;;109864;1261;41650;-69
2022/06/26 11:03:39;;;;;;;8.00;2.40;;;;;33.02;97410.40;;;;109987;1262;41274;-68
2022/06/26 11:06:14;;;;;;;5.70;2.20;;;;;33.10;97404.80;;;;110060;1262;41301;-69
2022/06/26 11:08:47;;;;;;;6.80;2.60;;;;;33.08;97400.00;;;;110116;1259;42003;-68
2022/06/26 11:11:20;;;;;;;8.60;2.60;;;;;33.64;97391.00;;;;109901;1260;42093;-68
2022/06/26 11:13:58;;;;;;;5.90;2.10;;;;;33.80;97386.40;;;;109993;1261;41158;-68
2022/06/26 11:16:33;;;;;;;7.00;2.70;;;;;33.18;97382.80;;;;110022;1261;42050;-68
2022/06/26 11:19:06;;;;;;;11.90;3.20;;;;;32.22;97397.20;;;;110080;1262;41284;-68
2022/06/26 11:21:35;;;;;;;7.50;3.00;;;;;32.30;97394.00;;;;110019;1260;41166;-67
2022/06/26 11:24:04;;;;;;;6.20;2.60;;;;;32.38;97389.60;;;;110547;1255;41293;-68
2022/06/26 11:26:33;;;;;;;7.80;3.40;;;;;32.52;97389.40;;;;110476;1254;41286;-69
2022/06/26 11:29:04;;;;;;;6.50;3.20;;;;;33.12;97390.20;;;;110562;1255;41160;-68
2022/06/26 11:31:33;;;;;;;8.20;2.70;;;;;33.22;97386.60;;;;110636;1256;41467;-68
2022/06/26 11:34:12;;;;;;;5.10;2.40;;;;;33.54;97388.20;;;;110327;1256;41593;-69
2022/06/26 11:36:56;;;;;;;8.40;2.70;;;;;34.64;97382.60;;;;110493;1254;41205;-70
2022/06/26 11:39:40;;;;;;;6.30;2.40;;;;;35.56;97375.40;;;;110522;1254;41253;-69
2022/06/26 11:42:17;;;;;;;7.20;2.30;;;;;36.14;97372.80;;;;110656;1255;41152;-67
2022/06/26 11:44:49;;;;;;;7.60;2.10;;;;;36.58;97367.00;;;;110379;1257;41537;-69
2022/06/26 11:47:20;;;;;;;8.30;2.70;;;;;36.80;97377.00;;;;110477;1254;41259;-69
2022/06/26 11:49:49;;;;;;;5.80;2.40;;;;;35.10;97384.20;;;;110569;1255;42073;-69
2022/06/26 11:52:18;;;;;;;9.50;3.00;;;;;33.60;97399.80;;;;110530;1252;41165;-69
2022/06/26 11:54:58;;;;;;;7.20;2.40;;;;;32.80;97419.40;;;;110351;1255;41164;-67
2022/06/26 11:57:30;;;;;;;7.20;2.30;;;;;32.16;97439.00;;;;110582;1254;41261;-69
2022/06/26 12:00:04;;;;;;;8.50;2.10;;;;;31.70;97446.80;;;;110557;1257;41326;-67
2022/06/26 12:02:40;;;;;;;5.50;2.20;;;;;30.26;97448.00;;;;110542;1255;41275;-68
2022/06/26 12:05:09;;;;;;;9.70;2.20;;;;;30.34;97450.80;;;;110494;1255;41510;-68
2022/06/26 12:07:41;;;;;;;6.10;2.30;;;;;30.20;97454.00;;;;110660;1255;41297;-69
2022/06/26 12:10:10;;;;;;;9.70;2.50;;;;;28.82;97461.00;;;;110442;1254;42263;-69
2022/06/26 12:12:49;;;;;;;7.70;2.40;;;;;28.56;97465.60;;;;110654;1255;41453;-68
2022/06/26 12:15:18;;;;;;;10.70;2.70;;;;;27.90;97472.00;;;;110576;1254;41644;-68
2022/06/26 12:17:58;;;;;;;10.90;2.30;;;;;26.24;97485.20;;;;110554;1255;41150;-67
2022/06/26 12:20:33;;;;;;;13.90;2.50;;;;;24.66;97502.60;;;;110480;1254;41621;-68
2022/06/26 12:23:10;;;;;;;5.80;2.40;;;;;23.62;97519.80;;;;110551;1254;41198;-68
2022/06/26 12:25:44;;;;;;;9.80;3.00;;;;;23.50;97519.40;;;;110668;1255;41590;-68
2022/06/26 12:28:23;;;;;;;7.30;2.70;;;;;23.42;97518.20;;;;110427;1257;42373;-68
2022/06/26 12:30:52;;;;;;;6.10;2.60;;;;;23.24;97518.60;;;;110624;1254;41125;-68
2022/06/26 12:33:21;;;;;;;6.90;2.40;;;;;23.20;97527.80;;;;110563;1256;41912;-67
2022/06/26 12:35:50;;;;;;;6.70;2.50;;;;;23.28;97535.60;;;;110457;1256;41271;-67
2022/06/26 12:38:28;;;;;;;5.00;2.10;;;;;23.50;97538.80;;;;110507;1255;41837;-67
2022/06/26 12:40:57;;;;;;;5.60;2.40;;;;;23.72;97541.40;;;;110406;1256;42644;-67
2022/06/26 12:43:26;;;;;;;5.70;1.90;;;;;23.96;97538.20;;;;110531;1255;41722;-67
2022/06/26 12:45:55;;;;;;;5.50;2.20;;;;;24.10;97540.20;;;;110567;1254;41888;-68
2022/06/26 12:48:24;;;;;;;4.30;2.00;;;;;24.30;97535.80;;;;110528;1257;41247;-67
2022/06/26 12:50:53;;;;;;;5.60;2.10;;;;;24.40;97539.00;;;;110520;1256;41260;-67
2022/06/26 12:53:22;;;;;;;4.30;2.10;;;;;24.00;97544.00;;;;110623;1256;41267;-67
2022/06/26 12:55:51;;;;;;;6.00;2.10;;;;;23.94;97550.80;;;;110602;1254;41155;-68